sensor_id;sensor_type;location;lat;lon;timestamp;pressure;altitude;pressure_sealevel;temperature;humidity
49451;BME280;35336;48.400;10.886;2023-08-06T00:00:12;95587.66;;;14.59;93.65
49451;BME280;35336;48.400;10.886;2023-08-06T00:00:28;95587.56;;;14.66;93.99
49451;BME280;35336;48.400;10.886;2023-08-06T00:00:45;95591.06;;;14.67;94.06
49451;BME280;35336;48.400;10.886;2023-08-06T00:01:01;95588.38;;;14.67;94.38
49451;BME280;35336;48.400;10.886;2023-08-06T00:01:16;95579.97;;;14.63;94.32
49451;BME280;35336;48.400;10.886;2023-08-06T00:01:33;95590.47;;;14.65;93.84
49451;BME280;35336;48.400;10.886;2023-08-06T00:01:49;95591.75;;;14.62;93.25
49451;BME280;35336;48.400;10.886;2023-08-06T00:02:04;95586.88;;;14.59;93.64
49451;BME280;35336;48.400;10.886;2023-08-06T00:02:20;95581.25;;;14.60;93.96
49451;BME280;35336;48.400;10.886;2023-08-06T00:02:35;95589.88;;;14.63;94.04
49451;BME280;35336;48.400;10.886;2023-08-06T00:02:53;95587.19;;;14.63;94.72
49451;BME280;35336;48.400;10.886;2023-08-06T00:03:08;95592.56;;;14.63;94.30
49451;BME280;35336;48.400;10.886;2023-08-06T00:03:26;95594.56;;;14.67;94.35
49451;BME280;35336;48.400;10.886;2023-08-06T00:03:43;95589.41;;;14.66;94.16
49451;BME280;35336;48.400;10.886;2023-08-06T00:03:59;95593.50;;;14.68;94.39
49451;BME280;35336;48.400;10.886;2023-08-06T00:04:17;95592.69;;;14.68;94.84
49451;BME280;35336;48.400;10.886;2023-08-06T00:04:32;95579.75;;;14.65;94.81
49451;BME280;35336;48.400;10.886;2023-08-06T00:04:47;95586.50;;;14.67;94.87
49451;BME280;35336;48.400;10.886;2023-08-06T00:05:05;95588.16;;;14.68;95.39
49451;BME280;35336;48.400;10.886;2023-08-06T00:05:20;95590.59;;;14.70;95.65
49451;BME280;35336;48.400;10.886;2023-08-06T00:05:36;95582.28;;;14.71;96.01
49451;BME280;35336;48.400;10.886;2023-08-06T00:05:53;95592.22;;;14.71;96.00
49451;BME280;35336;48.400;10.886;2023-08-06T00:06:13;95588.94;;;14.69;95.88
49451;BME280;35336;48.400;10.886;2023-08-06T00:06:29;95588.94;;;14.69;95.30
49451;BME280;35336;48.400;10.886;2023-08-06T00:06:47;95583.13;;;14.72;95.52
49451;BME280;35336;48.400;10.886;2023-08-06T00:07:02;95587.97;;;14.75;95.32
49451;BME280;35336;48.400;10.886;2023-08-06T00:07:20;95571.47;;;14.66;95.28
49451;BME280;35336;48.400;10.886;2023-08-06T00:07:35;95576.13;;;14.71;95.16
49451;BME280;35336;48.400;10.886;2023-08-06T00:07:51;95580.50;;;14.77;95.14
49451;BME280;35336;48.400;10.886;2023-08-06T00:08:06;95577.81;;;14.77;94.95
49451;BME280;35336;48.400;10.886;2023-08-06T00:08:21;95564.56;;;14.70;95.03
49451;BME280;35336;48.400;10.886;2023-08-06T00:08:36;95565.94;;;14.73;95.49
49451;BME280;35336;48.400;10.886;2023-08-06T00:08:52;95571.41;;;14.78;95.56
49451;BME280;35336;48.400;10.886;2023-08-06T00:09:09;95574.47;;;14.70;95.54
49451;BME280;35336;48.400;10.886;2023-08-06T00:09:27;95578.16;;;14.81;95.90
49451;BME280;35336;48.400;10.886;2023-08-06T00:09:42;95574.66;;;14.80;96.34
49451;BME280;35336;48.400;10.886;2023-08-06T00:09:57;95580.00;;;14.80;96.57
49451;BME280;35336;48.400;10.886;2023-08-06T00:10:13;95560.56;;;14.73;96.62
49451;BME280;35336;48.400;10.886;2023-08-06T00:10:28;95571.41;;;14.78;96.63
49451;BME280;35336;48.400;10.886;2023-08-06T00:10:44;95565.72;;;14.74;96.52
49451;BME280;35336;48.400;10.886;2023-08-06T00:11:01;95576.84;;;14.83;96.67
49451;BME280;35336;48.400;10.886;2023-08-06T00:11:16;95573.94;;;14.85;96.68
49451;BME280;35336;48.400;10.886;2023-08-06T00:11:35;95569.84;;;14.82;96.68
49451;BME280;35336;48.400;10.886;2023-08-06T00:11:50;95572.53;;;14.82;96.64
49451;BME280;35336;48.400;10.886;2023-08-06T00:12:07;95564.41;;;14.77;96.58
49451;BME280;35336;48.400;10.886;2023-08-06T00:12:23;95571.25;;;14.85;96.61
49451;BME280;35336;48.400;10.886;2023-08-06T00:12:38;95572.53;;;14.82;96.58
49451;BME280;35336;48.400;10.886;2023-08-06T00:12:53;95575.22;;;14.82;96.76
49451;BME280;35336;48.400;10.886;2023-08-06T00:13:09;95575.81;;;14.84;96.63
49451;BME280;35336;48.400;10.886;2023-08-06T00:13:24;95572.06;;;14.85;96.58
49451;BME280;35336;48.400;10.886;2023-08-06T00:13:39;95565.53;;;14.81;96.84
49451;BME280;35336;48.400;10.886;2023-08-06T00:13:55;95567.25;;;14.87;96.65
49451;BME280;35336;48.400;10.886;2023-08-06T00:14:10;95565.16;;;14.89;96.46
49451;BME280;35336;48.400;10.886;2023-08-06T00:14:26;95558.31;;;14.82;96.75
49451;BME280;35336;48.400;10.886;2023-08-06T00:14:43;95564.56;;;14.87;96.67
49451;BME280;35336;48.400;10.886;2023-08-06T00:14:59;95555.97;;;14.85;96.61
49451;BME280;35336;48.400;10.886;2023-08-06T00:15:17;95566.78;;;14.90;96.61
49451;BME280;35336;48.400;10.886;2023-08-06T00:15:32;95551.56;;;14.79;96.44
49451;BME280;35336;48.400;10.886;2023-08-06T00:15:48;95557.50;;;14.81;96.82
49451;BME280;35336;48.400;10.886;2023-08-06T00:16:10;95565.41;;;14.88;96.81
49451;BME280;35336;48.400;10.886;2023-08-06T00:16:25;95563.28;;;14.90;96.82
49451;BME280;35336;48.400;10.886;2023-08-06T00:16:44;95568.66;;;14.90;96.85
49451;BME280;35336;48.400;10.886;2023-08-06T00:17:02;95564.91;;;14.91;97.12
49451;BME280;35336;48.400;10.886;2023-08-06T00:17:17;95570.53;;;14.89;97.09
49451;BME280;35336;48.400;10.886;2023-08-06T00:17:35;95565.72;;;14.91;97.25
49451;BME280;35336;48.400;10.886;2023-08-06T00:17:51;95565.16;;;14.89;97.35
49451;BME280;35336;48.400;10.886;2023-08-06T00:18:06;95567.38;;;14.92;97.25
49451;BME280;35336;48.400;10.886;2023-08-06T00:18:23;95572.22;;;14.96;97.51
49451;BME280;35336;48.400;10.886;2023-08-06T00:18:40;95568.50;;;14.97;97.29
49451;BME280;35336;48.400;10.886;2023-08-06T00:18:55;95563.28;;;14.90;96.82
49451;BME280;35336;48.400;10.886;2023-08-06T00:19:11;95555.97;;;14.85;97.04
49451;BME280;35336;48.400;10.886;2023-08-06T00:19:26;95559.19;;;14.87;96.75
49451;BME280;35336;48.400;10.886;2023-08-06T00:19:44;95570.03;;;14.92;96.94
49451;BME280;35336;48.400;10.886;2023-08-06T00:20:00;95569.00;;;14.93;97.08
49451;BME280;35336;48.400;10.886;2023-08-06T00:20:15;95564.69;;;14.92;96.67
49451;BME280;35336;48.400;10.886;2023-08-06T00:20:33;95563.28;;;14.90;96.51
49451;BME280;35336;48.400;10.886;2023-08-06T00:20:48;95564.56;;;14.87;96.25
49451;BME280;35336;48.400;10.886;2023-08-06T00:21:06;95572.72;;;14.92;96.14
49451;BME280;35336;48.400;10.886;2023-08-06T00:21:26;95572.72;;;14.92;95.90
49451;BME280;35336;48.400;10.886;2023-08-06T00:21:41;95566.53;;;14.92;95.85
49451;BME280;35336;48.400;10.886;2023-08-06T00:21:57;95572.16;;;14.90;95.80
49451;BME280;35336;48.400;10.886;2023-08-06T00:22:12;95561.34;;;14.85;95.82
49451;BME280;35336;48.400;10.886;2023-08-06T00:22:27;95567.03;;;14.89;95.95
49451;BME280;35336;48.400;10.886;2023-08-06T00:22:43;95579.41;;;14.90;96.13
49451;BME280;35336;48.400;10.886;2023-08-06T00:23:03;95557.59;;;14.86;96.57
49451;BME280;35336;48.400;10.886;2023-08-06T00:23:21;95559.72;;;14.84;96.19
49451;BME280;35336;48.400;10.886;2023-08-06T00:23:36;95566.53;;;14.92;96.81
49451;BME280;35336;48.400;10.886;2023-08-06T00:23:51;95558.72;;;14.90;96.74
49451;BME280;35336;48.400;10.886;2023-08-06T00:24:07;95571.09;;;14.91;96.34
49451;BME280;35336;48.400;10.886;2023-08-06T00:24:25;95567.59;;;14.91;95.85
49451;BME280;35336;48.400;10.886;2023-08-06T00:24:40;95562.97;;;14.86;95.73
49451;BME280;35336;48.400;10.886;2023-08-06T00:24:56;95564.09;;;14.90;95.32
49451;BME280;35336;48.400;10.886;2023-08-06T00:25:12;95570.78;;;14.88;94.59
49451;BME280;35336;48.400;10.886;2023-08-06T00:25:27;95562.13;;;14.86;95.05
49451;BME280;35336;48.400;10.886;2023-08-06T00:25:47;95557.03;;;14.84;95.23
49451;BME280;35336;48.400;10.886;2023-08-06T00:26:03;95554.47;;;14.77;94.16
49451;BME280;35336;48.400;10.886;2023-08-06T00:26:18;95550.09;;;14.71;94.14
49451;BME280;35336;48.400;10.886;2023-08-06T00:26:33;95558.22;;;14.76;94.08
49451;BME280;35336;48.400;10.886;2023-08-06T00:26:49;95559.28;;;14.75;93.98
49451;BME280;35336;48.400;10.886;2023-08-06T00:27:04;95550.81;;;14.67;93.89
49451;BME280;35336;48.400;10.886;2023-08-06T00:27:24;95553.59;;;14.72;93.67
49451;BME280;35336;48.400;10.886;2023-08-06T00:27:39;95548.56;;;14.75;93.88
49451;BME280;35336;48.400;10.886;2023-08-06T00:27:55;95539.03;;;14.68;93.90
49451;BME280;35336;48.400;10.886;2023-08-06T00:28:10;95551.31;;;14.81;94.17
49451;BME280;35336;48.400;10.886;2023-08-06T00:28:25;95543.19;;;14.75;94.33
49451;BME280;35336;48.400;10.886;2023-08-06T00:28:43;95554.81;;;14.81;94.73
49451;BME280;35336;48.400;10.886;2023-08-06T00:28:58;95556.44;;;14.82;94.99
49451;BME280;35336;48.400;10.886;2023-08-06T00:29:16;95548.31;;;14.77;95.91
49451;BME280;35336;48.400;10.886;2023-08-06T00:29:34;95556.78;;;14.86;96.22
49451;BME280;35336;48.400;10.886;2023-08-06T00:29:50;95556.44;;;14.82;96.22
49451;BME280;35336;48.400;10.886;2023-08-06T00:30:06;95556.78;;;14.86;96.32
49451;BME280;35336;48.400;10.886;2023-08-06T00:30:21;95551.66;;;14.84;96.53
49451;BME280;35336;48.400;10.886;2023-08-06T00:30:37;95545.97;;;14.81;96.30
49451;BME280;35336;48.400;10.886;2023-08-06T00:30:56;95557.59;;;14.86;96.28
49451;BME280;35336;48.400;10.886;2023-08-06T00:31:13;95560.03;;;14.88;96.22
49451;BME280;35336;48.400;10.886;2023-08-06T00:31:29;95542.44;;;14.80;95.99
49451;BME280;35336;48.400;10.886;2023-08-06T00:31:44;95552.44;;;14.85;96.32
49451;BME280;35336;48.400;10.886;2023-08-06T00:31:59;95559.19;;;14.87;96.56
49451;BME280;35336;48.400;10.886;2023-08-06T00:32:17;95555.13;;;14.85;96.57
49451;BME280;35336;48.400;10.886;2023-08-06T00:32:32;95551.31;;;14.81;96.50
49451;BME280;35336;48.400;10.886;2023-08-06T00:32:50;95543.75;;;14.77;95.81
49451;BME280;35336;48.400;10.886;2023-08-06T00:33:07;95557.03;;;14.84;95.42
49451;BME280;35336;48.400;10.886;2023-08-06T00:33:23;95557.03;;;14.84;95.46
49451;BME280;35336;48.400;10.886;2023-08-06T00:33:39;95552.97;;;14.82;95.09
49451;BME280;35336;48.400;10.886;2023-08-06T00:33:54;95558.00;;;14.78;95.04
49451;BME280;35336;48.400;10.886;2023-08-06T00:34:10;95559.97;;;14.83;94.89
49451;BME280;35336;48.400;10.886;2023-08-06T00:34:25;95552.72;;;14.83;94.79
49451;BME280;35336;48.400;10.886;2023-08-06T00:34:41;95553.19;;;14.80;94.31
49451;BME280;35336;48.400;10.886;2023-08-06T00:34:56;95561.00;;;14.82;94.30
49451;BME280;35336;48.400;10.886;2023-08-06T00:35:11;95561.22;;;14.80;94.40
49451;BME280;35336;48.400;10.886;2023-08-06T00:35:27;95553.75;;;14.82;94.38
49451;BME280;35336;48.400;10.886;2023-08-06T00:35:45;95545.63;;;14.77;94.49
49451;BME280;35336;48.400;10.886;2023-08-06T00:36:03;95551.31;;;14.81;94.65
49451;BME280;35336;48.400;10.886;2023-08-06T00:36:18;95544.56;;;14.78;94.51
49451;BME280;35336;48.400;10.886;2023-08-06T00:36:36;95545.06;;;14.75;94.51
49451;BME280;35336;48.400;10.886;2023-08-06T00:36:52;95550.75;;;14.79;94.57
49451;BME280;35336;48.400;10.886;2023-08-06T00:37:10;95556.38;;;14.77;94.22
49451;BME280;35336;48.400;10.886;2023-08-06T00:37:26;95539.28;;;14.66;93.91
49451;BME280;35336;48.400;10.886;2023-08-06T00:37:43;95536.09;;;14.69;94.24
49451;BME280;35336;48.400;10.886;2023-08-06T00:37:59;95550.50;;;14.80;94.84
49451;BME280;35336;48.400;10.886;2023-08-06T00:38:14;95550.75;;;14.79;94.89
49451;BME280;35336;48.400;10.886;2023-08-06T00:38:30;95553.19;;;14.80;95.08
49451;BME280;35336;48.400;10.886;2023-08-06T00:38:45;95554.00;;;14.81;95.38
49451;BME280;35336;48.400;10.886;2023-08-06T00:39:02;95554.81;;;14.81;95.43
49451;BME280;35336;48.400;10.886;2023-08-06T00:39:18;95555.88;;;14.80;95.34
49451;BME280;35336;48.400;10.886;2023-08-06T00:39:33;95553.19;;;14.80;94.89
49451;BME280;35336;48.400;10.886;2023-08-06T00:39:48;95559.63;;;14.79;94.58
49451;BME280;35336;48.400;10.886;2023-08-06T00:40:07;95549.03;;;14.72;93.95
49451;BME280;35336;48.400;10.886;2023-08-06T00:40:22;95539.84;;;14.68;93.68
49451;BME280;35336;48.400;10.886;2023-08-06T00:40:38;95554.16;;;14.74;93.87
49451;BME280;35336;48.400;10.886;2023-08-06T00:40:53;95552.53;;;14.73;93.88
49451;BME280;35336;48.400;10.886;2023-08-06T00:41:11;95553.69;;;14.77;94.14
49451;BME280;35336;48.400;10.886;2023-08-06T00:41:28;95555.31;;;14.78;94.33
49451;BME280;35336;48.400;10.886;2023-08-06T00:41:44;95558.53;;;14.80;94.24
49451;BME280;35336;48.400;10.886;2023-08-06T00:41:59;95545.97;;;14.81;94.30
49451;BME280;35336;48.400;10.886;2023-08-06T00:42:20;95546.53;;;14.83;94.70
49451;BME280;35336;48.400;10.886;2023-08-06T00:42:35;95544.06;;;14.81;94.68
49451;BME280;35336;48.400;10.886;2023-08-06T00:42:50;95551.66;;;14.84;95.20
49451;BME280;35336;48.400;10.886;2023-08-06T00:43:06;95544.00;;;14.76;94.25
49451;BME280;35336;48.400;10.886;2023-08-06T00:43:21;95536.41;;;14.73;93.79
49451;BME280;35336;48.400;10.886;2023-08-06T00:43:37;95539.09;;;14.73;94.04
49451;BME280;35336;48.400;10.886;2023-08-06T00:43:52;95553.69;;;14.77;94.02
49451;BME280;35336;48.400;10.886;2023-08-06T00:44:07;95546.28;;;14.67;93.71
49451;BME280;35336;48.400;10.886;2023-08-06T00:44:25;95544.03;;;14.64;93.56
49451;BME280;35336;48.400;10.886;2023-08-06T00:44:41;95550.09;;;14.71;93.83
49451;BME280;35336;48.400;10.886;2023-08-06T00:44:58;95556.50;;;14.70;93.82
49451;BME280;35336;48.400;10.886;2023-08-06T00:45:18;95549.19;;;14.66;94.73
49451;BME280;35336;48.400;10.886;2023-08-06T00:45:38;95561.06;;;14.70;94.88
49451;BME280;35336;48.400;10.886;2023-08-06T00:45:53;95551.97;;;14.71;95.01
49451;BME280;35336;48.400;10.886;2023-08-06T00:46:09;95560.81;;;14.71;94.97
49451;BME280;35336;48.400;10.886;2023-08-06T00:46:25;95561.06;;;14.70;94.80
49451;BME280;35336;48.400;10.886;2023-08-06T00:46:41;95558.06;;;14.66;94.74
49451;BME280;35336;48.400;10.886;2023-08-06T00:46:57;95551.28;;;14.64;94.87
49451;BME280;35336;48.400;10.886;2023-08-06T00:47:15;95559.06;;;14.65;95.01
49451;BME280;35336;48.400;10.886;2023-08-06T00:47:30;95555.72;;;14.58;95.06
49451;BME280;35336;48.400;10.886;2023-08-06T00:47:46;95552.25;;;14.57;94.96
49451;BME280;35336;48.400;10.886;2023-08-06T00:48:03;95563.06;;;14.63;95.12
49451;BME280;35336;48.400;10.886;2023-08-06T00:48:20;95564.34;;;14.60;95.13
49451;BME280;35336;48.400;10.886;2023-08-06T00:48:38;95561.22;;;14.51;95.17
49451;BME280;35336;48.400;10.886;2023-08-06T00:48:55;95557.03;;;14.55;95.40
49451;BME280;35336;48.400;10.886;2023-08-06T00:49:10;95558.66;;;14.56;95.12
49451;BME280;35336;48.400;10.886;2023-08-06T00:49:26;95568.56;;;14.56;94.98
49451;BME280;35336;48.400;10.886;2023-08-06T00:49:43;95557.03;;;14.55;95.29
49451;BME280;35336;48.400;10.886;2023-08-06T00:49:59;95552.63;;;14.49;95.21
49451;BME280;35336;48.400;10.886;2023-08-06T00:50:16;95559.13;;;14.53;95.47
49451;BME280;35336;48.400;10.886;2023-08-06T00:50:32;95543.41;;;14.45;95.56
49451;BME280;35336;48.400;10.886;2023-08-06T00:50:47;95571.56;;;14.59;95.43
49451;BME280;35336;48.400;10.886;2023-08-06T00:51:05;95551.66;;;14.55;95.94
49451;BME280;35336;48.400;10.886;2023-08-06T00:51:20;95561.44;;;14.61;96.05
49451;BME280;35336;48.400;10.886;2023-08-06T00:51:38;95565.50;;;14.64;95.87
49451;BME280;35336;48.400;10.886;2023-08-06T00:51:53;95556.06;;;14.61;95.98
49451;BME280;35336;48.400;10.886;2023-08-06T00:52:09;95547.44;;;14.59;96.05
49451;BME280;35336;48.400;10.886;2023-08-06T00:52:24;95564.22;;;14.67;96.15
49451;BME280;35336;48.400;10.886;2023-08-06T00:52:42;95557.81;;;14.68;96.69
49451;BME280;35336;48.400;10.886;2023-08-06T00:53:00;95553.72;;;14.65;97.12
49451;BME280;35336;48.400;10.886;2023-08-06T00:53:16;95563.50;;;14.71;97.30
49451;BME280;35336;48.400;10.886;2023-08-06T00:53:33;95556.63;;;14.64;97.41
49451;BME280;35336;48.400;10.886;2023-08-06T00:53:52;95567.00;;;14.72;97.41
49451;BME280;35336;48.400;10.886;2023-08-06T00:54:08;95559.50;;;14.74;97.54
49451;BME280;35336;48.400;10.886;2023-08-06T00:54:27;95552.78;;;14.71;97.56
49451;BME280;35336;48.400;10.886;2023-08-06T00:54:42;95546.72;;;14.64;97.29
49451;BME280;35336;48.400;10.886;2023-08-06T00:54:58;95558.38;;;14.70;97.13
49451;BME280;35336;48.400;10.886;2023-08-06T00:55:13;95565.94;;;14.73;97.07
49451;BME280;35336;48.400;10.886;2023-08-06T00:55:29;95553.03;;;14.70;96.91
49451;BME280;35336;48.400;10.886;2023-08-06T00:55:44;95556.28;;;14.72;97.00
49451;BME280;35336;48.400;10.886;2023-08-06T00:56:00;95558.47;;;14.75;97.13
49451;BME280;35336;48.400;10.886;2023-08-06T00:56:15;95559.50;;;14.74;97.10
49451;BME280;35336;48.400;10.886;2023-08-06T00:56:36;95558.22;;;14.76;97.05
49451;BME280;35336;48.400;10.886;2023-08-06T00:56:52;95566.50;;;14.75;97.06
49451;BME280;35336;48.400;10.886;2023-08-06T00:57:09;95559.28;;;14.75;96.85
49451;BME280;35336;48.400;10.886;2023-08-06T00:57:24;95564.41;;;14.77;96.77
49451;BME280;35336;48.400;10.886;2023-08-06T00:57:40;95562.53;;;14.77;96.88
49451;BME280;35336;48.400;10.886;2023-08-06T00:58:00;95555.78;;;14.75;96.80
49451;BME280;35336;48.400;10.886;2023-08-06T00:58:16;95552.78;;;14.71;96.68
49451;BME280;35336;48.400;10.886;2023-08-06T00:58:32;95552.78;;;14.71;96.54
49451;BME280;35336;48.400;10.886;2023-08-06T00:58:47;95563.91;;;14.80;96.69
49451;BME280;35336;48.400;10.886;2023-08-06T00:59:09;95555.78;;;14.75;96.92
49451;BME280;35336;48.400;10.886;2023-08-06T00:59:25;95548.66;;;14.81;96.79
49451;BME280;35336;48.400;10.886;2023-08-06T00:59:41;95559.03;;;14.77;96.58
49451;BME280;35336;48.400;10.886;2023-08-06T00:59:56;95562.31;;;14.79;96.57
49451;BME280;35336;48.400;10.886;2023-08-06T01:00:14;95546.34;;;14.72;96.62
49451;BME280;35336;48.400;10.886;2023-08-06T01:00:30;95561.97;;;14.75;95.98
49451;BME280;35336;48.400;10.886;2023-08-06T01:00:48;95561.97;;;14.75;95.95
49451;BME280;35336;48.400;10.886;2023-08-06T01:01:08;95546.81;;;14.69;96.65
49451;BME280;35336;48.400;10.886;2023-08-06T01:01:23;95559.03;;;14.77;96.85
49451;BME280;35336;48.400;10.886;2023-08-06T01:01:38;95550.91;;;14.72;96.91
49451;BME280;35336;48.400;10.886;2023-08-06T01:01:54;95559.03;;;14.77;96.98
49451;BME280;35336;48.400;10.886;2023-08-06T01:02:09;95542.03;;;14.71;97.03
49451;BME280;35336;48.400;10.886;2023-08-06T01:02:26;95552.13;;;14.81;97.07
49451;BME280;35336;48.400;10.886;2023-08-06T01:02:42;95552.97;;;14.82;97.07
49451;BME280;35336;48.400;10.886;2023-08-06T01:02:57;95535.94;;;14.76;96.98
49451;BME280;35336;48.400;10.886;2023-08-06T01:03:13;95545.72;;;14.82;96.91
49451;BME280;35336;48.400;10.886;2023-08-06T01:03:28;95544.91;;;14.82;97.04
49451;BME280;35336;48.400;10.886;2023-08-06T01:03:43;95542.13;;;14.76;96.92
49451;BME280;35336;48.400;10.886;2023-08-06T01:04:02;95540.84;;;14.79;96.90
49451;BME280;35336;48.400;10.886;2023-08-06T01:04:17;95548.91;;;14.79;97.08
49451;BME280;35336;48.400;10.886;2023-08-06T01:04:33;95547.72;;;14.75;96.86
49451;BME280;35336;48.400;10.886;2023-08-06T01:04:48;95550.41;;;14.75;96.50
49451;BME280;35336;48.400;10.886;2023-08-06T01:05:04;95547.72;;;14.75;96.43
49451;BME280;35336;48.400;10.886;2023-08-06T01:05:21;95549.38;;;14.76;96.49
49451;BME280;35336;48.400;10.886;2023-08-06T01:05:39;95546.09;;;14.74;96.40
49451;BME280;35336;48.400;10.886;2023-08-06T01:05:55;95532.84;;;14.67;96.58
49451;BME280;35336;48.400;10.886;2023-08-06T01:06:10;95555.78;;;14.75;96.41
49451;BME280;35336;48.400;10.886;2023-08-06T01:06:52;95545.06;;;14.75;96.45
49451;BME280;35336;48.400;10.886;2023-08-06T01:08:56;95548.91;;;14.79;95.69
49451;BME280;35336;48.400;10.886;2023-08-06T01:09:41;95548.91;;;14.79;96.15
49451;BME280;35336;48.400;10.886;2023-08-06T01:10:08;95547.00;;;14.80;96.44
49451;BME280;35336;48.400;10.886;2023-08-06T01:11:52;95551.56;;;14.79;96.94
49451;BME280;35336;48.400;10.886;2023-08-06T01:13:13;95554.00;;;14.81;97.13
49451;BME280;35336;48.400;10.886;2023-08-06T01:13:33;95560.44;;;14.80;96.59
49451;BME280;35336;48.400;10.886;2023-08-06T01:14:02;95546.44;;;14.77;96.68
49451;BME280;35336;48.400;10.886;2023-08-06T01:14:37;95555.63;;;14.82;96.69
49451;BME280;35336;48.400;10.886;2023-08-06T01:15:22;95555.13;;;14.85;96.75
49451;BME280;35336;48.400;10.886;2023-08-06T01:15:45;95548.97;;;14.84;96.96
49451;BME280;35336;48.400;10.886;2023-08-06T01:16:04;95551.66;;;14.84;96.81
49451;BME280;35336;48.400;10.886;2023-08-06T01:16:21;95551.66;;;14.84;96.63
49451;BME280;35336;48.400;10.886;2023-08-06T01:16:37;95548.97;;;14.84;96.73
49451;BME280;35336;48.400;10.886;2023-08-06T01:16:57;95544.56;;;14.78;96.62
49451;BME280;35336;48.400;10.886;2023-08-06T01:17:14;95555.47;;;14.88;96.76
49451;BME280;35336;48.400;10.886;2023-08-06T01:17:29;95543.34;;;14.86;96.79
49451;BME280;35336;48.400;10.886;2023-08-06T01:17:48;95552.56;;;14.90;96.68
49451;BME280;35336;48.400;10.886;2023-08-06T01:18:04;95551.72;;;14.89;96.82
49451;BME280;35336;48.400;10.886;2023-08-06T01:18:19;95549.63;;;14.91;96.67
49451;BME280;35336;48.400;10.886;2023-08-06T01:18:38;95539.03;;;14.85;96.68
49451;BME280;35336;48.400;10.886;2023-08-06T01:18:53;95556.38;;;14.94;96.81
49451;BME280;35336;48.400;10.886;2023-08-06T01:19:18;95550.19;;;14.93;96.69
49451;BME280;35336;48.400;10.886;2023-08-06T01:19:33;95550.44;;;14.92;96.50
49451;BME280;35336;48.400;10.886;2023-08-06T01:19:51;95553.44;;;14.96;96.64
49451;BME280;35336;48.400;10.886;2023-08-06T01:20:06;95554.50;;;14.95;96.52
49451;BME280;35336;48.400;10.886;2023-08-06T01:20:22;95550.75;;;14.96;96.56
49451;BME280;35336;48.400;10.886;2023-08-06T01:20:39;95556.13;;;14.96;96.61
49451;BME280;35336;48.400;10.886;2023-08-06T01:20:57;95549.94;;;14.95;96.71
49451;BME280;35336;48.400;10.886;2023-08-06T01:21:13;95552.38;;;14.97;96.79
49451;BME280;35336;48.400;10.886;2023-08-06T01:21:28;95548.00;;;14.90;96.65
49451;BME280;35336;48.400;10.886;2023-08-06T01:21:43;95555.66;;;14.99;96.68
49451;BME280;35336;48.400;10.886;2023-08-06T01:21:59;95551.91;;;15.00;96.58
49451;BME280;35336;48.400;10.886;2023-08-06T01:22:14;95544.84;;;14.93;96.50
49451;BME280;35336;48.400;10.886;2023-08-06T01:22:30;95555.97;;;15.02;96.38
49451;BME280;35336;48.400;10.886;2023-08-06T01:22:50;95550.59;;;15.02;95.92
49451;BME280;35336;48.400;10.886;2023-08-06T01:23:05;95549.44;;;14.98;95.65
49451;BME280;35336;48.400;10.886;2023-08-06T01:23:20;95544.06;;;14.98;95.61
49451;BME280;35336;48.400;10.886;2023-08-06T01:23:36;95543.53;;;14.96;95.45
49451;BME280;35336;48.400;10.886;2023-08-06T01:23:51;95546.44;;;14.95;95.88
49451;BME280;35336;48.400;10.886;2023-08-06T01:24:07;95546.28;;;15.01;95.60
49451;BME280;35336;48.400;10.886;2023-08-06T01:24:23;95555.72;;;15.04;95.70
49451;BME280;35336;48.400;10.886;2023-08-06T01:24:39;95546.28;;;15.01;95.71
49451;BME280;35336;48.400;10.886;2023-08-06T01:24:57;95535.47;;;14.96;95.61
49451;BME280;35336;48.400;10.886;2023-08-06T01:25:15;95548.25;;;15.06;95.94
49451;BME280;35336;48.400;10.886;2023-08-06T01:25:41;95549.88;;;15.07;96.01
49451;BME280;35336;48.400;10.886;2023-08-06T01:26:50;95552.56;;;15.07;95.88
49451;BME280;35336;48.400;10.886;2023-08-06T01:27:49;95551.91;;;15.00;94.13
49451;BME280;35336;48.400;10.886;2023-08-06T01:27:59;95558.97;;;15.06;95.62
49451;BME280;35336;48.400;10.886;2023-08-06T01:28:22;95555.66;;;14.99;94.59
49451;BME280;35336;48.400;10.886;2023-08-06T01:29:19;95537.72;;;14.87;95.34
49451;BME280;35336;48.400;10.886;2023-08-06T01:29:42;95553.69;;;14.94;94.86
49451;BME280;35336;48.400;10.886;2023-08-06T01:30:17;95557.09;;;14.89;94.34
49451;BME280;35336;48.400;10.886;2023-08-06T01:30:37;95552.22;;;14.86;94.26
49451;BME280;35336;48.400;10.886;2023-08-06T01:30:55;95549.56;;;14.86;94.27
49451;BME280;35336;48.400;10.886;2023-08-06T01:31:41;95548.38;;;14.82;94.73
49451;BME280;35336;48.400;10.886;2023-08-06T01:31:58;95552.97;;;14.82;94.45
49451;BME280;35336;48.400;10.886;2023-08-06T01:32:17;95551.06;;;14.82;94.29
49451;BME280;35336;48.400;10.886;2023-08-06T01:32:38;95540.84;;;14.79;94.32
49451;BME280;35336;48.400;10.886;2023-08-06T01:32:58;95552.72;;;14.83;94.21
49451;BME280;35336;48.400;10.886;2023-08-06T01:33:19;95555.97;;;14.85;94.36
49451;BME280;35336;48.400;10.886;2023-08-06T01:33:44;95554.34;;;14.84;94.28
49451;BME280;35336;48.400;10.886;2023-08-06T01:34:01;95547.00;;;14.80;94.18
49451;BME280;35336;48.400;10.886;2023-08-06T01:34:21;95548.66;;;14.81;94.13
49451;BME280;35336;48.400;10.886;2023-08-06T01:34:39;95549.44;;;14.81;93.96
49451;BME280;35336;48.400;10.886;2023-08-06T01:34:56;95545.38;;;14.79;94.30
49451;BME280;35336;48.400;10.886;2023-08-06T01:35:15;95545.06;;;14.75;94.26
49451;BME280;35336;48.400;10.886;2023-08-06T01:35:32;95549.22;;;14.83;94.25
49451;BME280;35336;48.400;10.886;2023-08-06T01:35:50;95546.53;;;14.83;94.36
49451;BME280;35336;48.400;10.886;2023-08-06T01:36:06;95544.06;;;14.81;94.44
49451;BME280;35336;48.400;10.886;2023-08-06T01:36:25;95544.06;;;14.81;94.38